sensor_id;sensor_type;location;lat;lon;timestamp;P1;durP1;ratioP1;P2;durP2;ratioP2
47335;SDS011;33068;51.990;5.926;2022-09-09T00:02:13;2.85;;;2.47;;
47335;SDS011;33068;51.990;5.926;2022-09-09T00:04:46;3.85;;;2.55;;
47335;SDS011;33068;51.990;5.926;2022-09-09T00:07:24;2.45;;;2.25;;
47335;SDS011;33068;51.990;5.926;2022-09-09T00:10:00;2.88;;;2.53;;
47335;SDS011;33068;51.990;5.926;2022-09-09T00:12:36;5.43;;;2.72;;
47335;SDS011;33068;51.990;5.926;2022-09-09T00:15:17;3.88;;;2.97;;
47335;SDS011;33068;51.990;5.926;2022-09-09T00:17:48;5.13;;;3.17;;
47335;SDS011;33068;51.990;5.926;2022-09-09T00:20:21;8.52;;;3.67;;
47335;SDS011;33068;51.990;5.926;2022-09-09T00:22:55;3.38;;;2.58;;
47335;SDS011;33068;51.990;5.926;2022-09-09T00:25:29;6.97;;;3.50;;
47335;SDS011;33068;51.990;5.926;2022-09-09T00:28:02;5.90;;;3.85;;
47335;SDS011;33068;51.990;5.926;2022-09-09T00:30:35;5.00;;;3.30;;
47335;SDS011;33068;51.990;5.926;2022-09-09T00:33:08;6.18;;;2.72;;
47335;SDS011;33068;51.990;5.926;2022-09-09T00:35:42;6.63;;;3.78;;
47335;SDS011;33068;51.990;5.926;2022-09-09T00:38:12;6.80;;;3.63;;
47335;SDS011;33068;51.990;5.926;2022-09-09T00:40:45;4.00;;;2.50;;
47335;SDS011;33068;51.990;5.926;2022-09-09T00:45:56;4.55;;;2.63;;
47335;SDS011;33068;51.990;5.926;2022-09-09T00:48:46;4.30;;;3.13;;
47335;SDS011;33068;51.990;5.926;2022-09-09T00:51:22;6.72;;;3.35;;
47335;SDS011;33068;51.990;5.926;2022-09-09T00:54:05;6.50;;;2.90;;
47335;SDS011;33068;51.990;5.926;2022-09-09T00:56:50;6.70;;;3.30;;
47335;SDS011;33068;51.990;5.926;2022-09-09T00:59:28;4.10;;;3.15;;
47335;SDS011;33068;51.990;5.926;2022-09-09T01:02:07;5.72;;;3.20;;
47335;SDS011;33068;51.990;5.926;2022-09-09T01:04:44;5.55;;;3.00;;
47335;SDS011;33068;51.990;5.926;2022-09-09T01:07:13;4.45;;;3.63;;
47335;SDS011;33068;51.990;5.926;2022-09-09T01:09:45;4.63;;;3.13;;
47335;SDS011;33068;51.990;5.926;2022-09-09T01:12:25;6.35;;;3.22;;
47335;SDS011;33068;51.990;5.926;2022-09-09T01:15:01;3.30;;;3.00;;
47335;SDS011;33068;51.990;5.926;2022-09-09T01:17:42;4.00;;;2.72;;
47335;SDS011;33068;51.990;5.926;2022-09-09T01:20:17;4.05;;;2.58;;
47335;SDS011;33068;51.990;5.926;2022-09-09T01:23:01;2.95;;;2.63;;
47335;SDS011;33068;51.990;5.926;2022-09-09T01:26:06;3.10;;;2.33;;
47335;SDS011;33068;51.990;5.926;2022-09-09T01:28:40;2.58;;;2.30;;
47335;SDS011;33068;51.990;5.926;2022-09-09T01:31:14;3.53;;;2.50;;
47335;SDS011;33068;51.990;5.926;2022-09-09T01:33:45;3.20;;;2.17;;
47335;SDS011;33068;51.990;5.926;2022-09-09T01:36:14;2.85;;;2.53;;
47335;SDS011;33068;51.990;5.926;2022-09-09T01:38:48;3.45;;;2.28;;
47335;SDS011;33068;51.990;5.926;2022-09-09T01:41:18;4.88;;;2.63;;
47335;SDS011;33068;51.990;5.926;2022-09-09T01:43:58;3.30;;;2.28;;
47335;SDS011;33068;51.990;5.926;2022-09-09T01:46:26;7.68;;;2.60;;
47335;SDS011;33068;51.990;5.926;2022-09-09T01:48:55;2.55;;;2.35;;
47335;SDS011;33068;51.990;5.926;2022-09-09T01:51:25;3.65;;;2.30;;
47335;SDS011;33068;51.990;5.926;2022-09-09T01:53:53;3.22;;;1.83;;
47335;SDS011;33068;51.990;5.926;2022-09-09T01:56:25;1.90;;;1.52;;
47335;SDS011;33068;51.990;5.926;2022-09-09T01:59:04;3.50;;;2.25;;
47335;SDS011;33068;51.990;5.926;2022-09-09T02:01:55;2.22;;;1.52;;
47335;SDS011;33068;51.990;5.926;2022-09-09T02:04:39;4.72;;;1.95;;
47335;SDS011;33068;51.990;5.926;2022-09-09T02:07:21;2.78;;;1.75;;
47335;SDS011;33068;51.990;5.926;2022-09-09T02:10:00;1.67;;;1.38;;
47335;SDS011;33068;51.990;5.926;2022-09-09T02:12:35;2.53;;;1.83;;
47335;SDS011;33068;51.990;5.926;2022-09-09T02:15:07;4.38;;;1.88;;
47335;SDS011;33068;51.990;5.926;2022-09-09T02:17:46;2.00;;;1.80;;
47335;SDS011;33068;51.990;5.926;2022-09-09T02:20:18;3.60;;;2.00;;
47335;SDS011;33068;51.990;5.926;2022-09-09T02:22:50;1.83;;;1.50;;
47335;SDS011;33068;51.990;5.926;2022-09-09T02:25:22;4.20;;;1.90;;
47335;SDS011;33068;51.990;5.926;2022-09-09T02:27:56;1.83;;;1.70;;
47335;SDS011;33068;51.990;5.926;2022-09-09T02:30:24;3.15;;;1.95;;
47335;SDS011;33068;51.990;5.926;2022-09-09T02:32:56;5.13;;;2.05;;
47335;SDS011;33068;51.990;5.926;2022-09-09T02:35:43;3.63;;;2.38;;
47335;SDS011;33068;51.990;5.926;2022-09-09T02:38:16;3.83;;;2.13;;
47335;SDS011;33068;51.990;5.926;2022-09-09T02:40:55;2.10;;;1.85;;
47335;SDS011;33068;51.990;5.926;2022-09-09T02:43:24;6.13;;;2.58;;
47335;SDS011;33068;51.990;5.926;2022-09-09T02:45:54;3.50;;;2.28;;
47335;SDS011;33068;51.990;5.926;2022-09-09T02:48:30;2.95;;;2.20;;
47335;SDS011;33068;51.990;5.926;2022-09-09T02:51:06;8.82;;;2.63;;
47335;SDS011;33068;51.990;5.926;2022-09-09T02:53:39;3.25;;;2.67;;
47335;SDS011;33068;51.990;5.926;2022-09-09T02:56:12;4.18;;;2.85;;
47335;SDS011;33068;51.990;5.926;2022-09-09T02:58:44;3.97;;;2.75;;
47335;SDS011;33068;51.990;5.926;2022-09-09T03:01:12;4.25;;;2.92;;
47335;SDS011;33068;51.990;5.926;2022-09-09T03:03:40;4.40;;;2.53;;
47335;SDS011;33068;51.990;5.926;2022-09-09T03:06:11;4.65;;;3.17;;
47335;SDS011;33068;51.990;5.926;2022-09-09T03:08:39;4.50;;;3.05;;
47335;SDS011;33068;51.990;5.926;2022-09-09T03:11:07;3.90;;;3.28;;
47335;SDS011;33068;51.990;5.926;2022-09-09T03:13:36;4.20;;;3.22;;
47335;SDS011;33068;51.990;5.926;2022-09-09T03:16:06;9.38;;;3.35;;
47335;SDS011;33068;51.990;5.926;2022-09-09T03:18:39;4.75;;;3.55;;
47335;SDS011;33068;51.990;5.926;2022-09-09T03:21:07;4.00;;;2.78;;
47335;SDS011;33068;51.990;5.926;2022-09-09T03:23:36;5.40;;;3.30;;
47335;SDS011;33068;51.990;5.926;2022-09-09T03:26:03;5.22;;;3.75;;
47335;SDS011;33068;51.990;5.926;2022-09-09T03:28:38;8.02;;;3.25;;
47335;SDS011;33068;51.990;5.926;2022-09-09T03:31:07;11.52;;;4.68;;
47335;SDS011;33068;51.990;5.926;2022-09-09T03:33:38;7.60;;;3.80;;
47335;SDS011;33068;51.990;5.926;2022-09-09T03:36:09;5.70;;;4.28;;
47335;SDS011;33068;51.990;5.926;2022-09-09T03:38:36;7.05;;;4.45;;
47335;SDS011;33068;51.990;5.926;2022-09-09T03:41:04;7.75;;;4.43;;
47335;SDS011;33068;51.990;5.926;2022-09-09T03:43:33;6.70;;;4.18;;
47335;SDS011;33068;51.990;5.926;2022-09-09T03:46:03;6.90;;;4.22;;
47335;SDS011;33068;51.990;5.926;2022-09-09T03:48:31;9.75;;;4.28;;
47335;SDS011;33068;51.990;5.926;2022-09-09T03:50:59;7.63;;;4.30;;
47335;SDS011;33068;51.990;5.926;2022-09-09T03:53:29;8.15;;;5.05;;
47335;SDS011;33068;51.990;5.926;2022-09-09T03:55:57;6.50;;;4.22;;
47335;SDS011;33068;51.990;5.926;2022-09-09T03:58:27;8.30;;;3.97;;
47335;SDS011;33068;51.990;5.926;2022-09-09T04:01:01;6.57;;;4.45;;
47335;SDS011;33068;51.990;5.926;2022-09-09T04:03:32;7.32;;;4.80;;
47335;SDS011;33068;51.990;5.926;2022-09-09T04:06:00;6.78;;;4.82;;
47335;SDS011;33068;51.990;5.926;2022-09-09T04:08:30;8.05;;;5.25;;
47335;SDS011;33068;51.990;5.926;2022-09-09T04:10:58;9.15;;;4.57;;
47335;SDS011;33068;51.990;5.926;2022-09-09T04:13:28;8.52;;;4.88;;
47335;SDS011;33068;51.990;5.926;2022-09-09T04:15:57;7.45;;;4.50;;
47335;SDS011;33068;51.990;5.926;2022-09-09T04:18:25;10.77;;;4.32;;
47335;SDS011;33068;51.990;5.926;2022-09-09T04:20:55;7.20;;;4.22;;
47335;SDS011;33068;51.990;5.926;2022-09-09T04:23:25;9.40;;;4.65;;
47335;SDS011;33068;51.990;5.926;2022-09-09T04:25:56;6.65;;;4.47;;
47335;SDS011;33068;51.990;5.926;2022-09-09T04:28:25;6.50;;;4.55;;
47335;SDS011;33068;51.990;5.926;2022-09-09T04:30:54;5.80;;;4.18;;
47335;SDS011;33068;51.990;5.926;2022-09-09T04:33:23;7.93;;;4.30;;
47335;SDS011;33068;51.990;5.926;2022-09-09T04:35:52;6.38;;;4.63;;
47335;SDS011;33068;51.990;5.926;2022-09-09T04:38:24;6.03;;;4.22;;
47335;SDS011;33068;51.990;5.926;2022-09-09T04:40:53;7.22;;;4.75;;
47335;SDS011;33068;51.990;5.926;2022-09-09T04:43:21;7.45;;;4.35;;
47335;SDS011;33068;51.990;5.926;2022-09-09T04:45:51;9.05;;;4.75;;
47335;SDS011;33068;51.990;5.926;2022-09-09T04:48:21;10.10;;;5.20;;
47335;SDS011;33068;51.990;5.926;2022-09-09T04:50:56;6.30;;;4.60;;
47335;SDS011;33068;51.990;5.926;2022-09-09T04:53:26;9.07;;;4.27;;
47335;SDS011;33068;51.990;5.926;2022-09-09T04:56:00;6.45;;;4.25;;
47335;SDS011;33068;51.990;5.926;2022-09-09T04:58:32;6.43;;;3.45;;
47335;SDS011;33068;51.990;5.926;2022-09-09T05:01:06;7.93;;;4.32;;
47335;SDS011;33068;51.990;5.926;2022-09-09T05:03:35;11.80;;;4.38;;
47335;SDS011;33068;51.990;5.926;2022-09-09T05:06:05;5.07;;;3.38;;
47335;SDS011;33068;51.990;5.926;2022-09-09T05:08:36;8.20;;;3.67;;
47335;SDS011;33068;51.990;5.926;2022-09-09T05:11:11;6.60;;;3.20;;
47335;SDS011;33068;51.990;5.926;2022-09-09T05:13:40;6.28;;;3.33;;
47335;SDS011;33068;51.990;5.926;2022-09-09T05:16:07;8.60;;;3.80;;
47335;SDS011;33068;51.990;5.926;2022-09-09T05:18:36;6.88;;;3.88;;
47335;SDS011;33068;51.990;5.926;2022-09-09T05:21:05;4.55;;;2.78;;
47335;SDS011;33068;51.990;5.926;2022-09-09T05:23:32;5.03;;;3.30;;
47335;SDS011;33068;51.990;5.926;2022-09-09T05:26:02;5.95;;;3.40;;
47335;SDS011;33068;51.990;5.926;2022-09-09T05:28:30;8.70;;;3.63;;
47335;SDS011;33068;51.990;5.926;2022-09-09T05:31:01;5.60;;;3.30;;
47335;SDS011;33068;51.990;5.926;2022-09-09T05:33:32;10.68;;;3.70;;
47335;SDS011;33068;51.990;5.926;2022-09-09T05:36:00;7.97;;;2.95;;
47335;SDS011;33068;51.990;5.926;2022-09-09T05:38:29;6.57;;;2.60;;
47335;SDS011;33068;51.990;5.926;2022-09-09T05:43:26;7.35;;;3.00;;
47335;SDS011;33068;51.990;5.926;2022-09-09T05:46:01;5.35;;;3.67;;
47335;SDS011;33068;51.990;5.926;2022-09-09T05:48:31;8.85;;;3.53;;
47335;SDS011;33068;51.990;5.926;2022-09-09T05:51:01;8.88;;;3.22;;
47335;SDS011;33068;51.990;5.926;2022-09-09T05:53:29;14.32;;;5.07;;
47335;SDS011;33068;51.990;5.926;2022-09-09T05:56:00;5.72;;;3.17;;
47335;SDS011;33068;51.990;5.926;2022-09-09T05:58:33;8.73;;;2.67;;
47335;SDS011;33068;51.990;5.926;2022-09-09T06:01:04;6.50;;;3.00;;
47335;SDS011;33068;51.990;5.926;2022-09-09T06:03:33;7.63;;;3.30;;
47335;SDS011;33068;51.990;5.926;2022-09-09T06:06:01;8.68;;;3.13;;
47335;SDS011;33068;51.990;5.926;2022-09-09T06:08:31;6.88;;;2.95;;
47335;SDS011;33068;51.990;5.926;2022-09-09T06:11:02;6.72;;;3.42;;
47335;SDS011;33068;51.990;5.926;2022-09-09T06:13:33;9.88;;;3.35;;
47335;SDS011;33068;51.990;5.926;2022-09-09T06:16:02;7.05;;;2.67;;
47335;SDS011;33068;51.990;5.926;2022-09-09T06:18:30;8.45;;;3.00;;
47335;SDS011;33068;51.990;5.926;2022-09-09T06:20:58;7.85;;;3.10;;
47335;SDS011;33068;51.990;5.926;2022-09-09T06:23:27;7.10;;;3.08;;
47335;SDS011;33068;51.990;5.926;2022-09-09T06:26:04;7.68;;;2.78;;
47335;SDS011;33068;51.990;5.926;2022-09-09T06:28:35;6.63;;;3.17;;
47335;SDS011;33068;51.990;5.926;2022-09-09T06:31:04;7.45;;;3.40;;
47335;SDS011;33068;51.990;5.926;2022-09-09T06:33:34;12.73;;;3.40;;
47335;SDS011;33068;51.990;5.926;2022-09-09T06:36:05;5.03;;;2.40;;
47335;SDS011;33068;51.990;5.926;2022-09-09T06:38:33;6.57;;;2.90;;
47335;SDS011;33068;51.990;5.926;2022-09-09T06:41:01;8.63;;;2.97;;
47335;SDS011;33068;51.990;5.926;2022-09-09T06:43:28;9.35;;;2.72;;
47335;SDS011;33068;51.990;5.926;2022-09-09T06:45:57;6.78;;;2.75;;
47335;SDS011;33068;51.990;5.926;2022-09-09T06:48:25;9.15;;;2.33;;
47335;SDS011;33068;51.990;5.926;2022-09-09T06:51:00;7.22;;;2.63;;
47335;SDS011;33068;51.990;5.926;2022-09-09T06:53:31;3.67;;;1.92;;
47335;SDS011;33068;51.990;5.926;2022-09-09T06:55:59;7.03;;;2.03;;
47335;SDS011;33068;51.990;5.926;2022-09-09T06:58:28;5.50;;;2.13;;
47335;SDS011;33068;51.990;5.926;2022-09-09T07:01:03;8.80;;;2.45;;
47335;SDS011;33068;51.990;5.926;2022-09-09T07:03:32;8.88;;;2.50;;
47335;SDS011;33068;51.990;5.926;2022-09-09T07:06:01;7.75;;;2.47;;
47335;SDS011;33068;51.990;5.926;2022-09-09T07:08:29;11.68;;;2.38;;
47335;SDS011;33068;51.990;5.926;2022-09-09T07:11:01;7.32;;;2.05;;
47335;SDS011;33068;51.990;5.926;2022-09-09T07:13:30;6.70;;;2.50;;
47335;SDS011;33068;51.990;5.926;2022-09-09T07:16:04;6.30;;;2.60;;
47335;SDS011;33068;51.990;5.926;2022-09-09T07:18:32;9.25;;;2.50;;
47335;SDS011;33068;51.990;5.926;2022-09-09T07:21:00;11.65;;;2.80;;
47335;SDS011;33068;51.990;5.926;2022-09-09T07:23:28;3.20;;;1.70;;
47335;SDS011;33068;51.990;5.926;2022-09-09T07:25:56;6.82;;;1.85;;
47335;SDS011;33068;51.990;5.926;2022-09-09T07:28:23;9.13;;;2.78;;
47335;SDS011;33068;51.990;5.926;2022-09-09T07:30:54;6.85;;;1.90;;
47335;SDS011;33068;51.990;5.926;2022-09-09T07:33:24;4.10;;;1.83;;
47335;SDS011;33068;51.990;5.926;2022-09-09T07:35:52;5.45;;;2.05;;
47335;SDS011;33068;51.990;5.926;2022-09-09T07:38:19;6.93;;;2.35;;
47335;SDS011;33068;51.990;5.926;2022-09-09T07:40:48;12.32;;;2.90;;
47335;SDS011;33068;51.990;5.926;2022-09-09T07:43:16;10.38;;;2.50;;
47335;SDS011;33068;51.990;5.926;2022-09-09T07:45:44;10.98;;;2.15;;
47335;SDS011;33068;51.990;5.926;2022-09-09T07:48:12;12.38;;;2.67;;
47335;SDS011;33068;51.990;5.926;2022-09-09T07:50:41;5.72;;;2.63;;
47335;SDS011;33068;51.990;5.926;2022-09-09T07:53:09;6.40;;;2.50;;
47335;SDS011;33068;51.990;5.926;2022-09-09T07:55:36;8.40;;;1.67;;
47335;SDS011;33068;51.990;5.926;2022-09-09T07:58:04;8.90;;;2.22;;
47335;SDS011;33068;51.990;5.926;2022-09-09T08:00:31;8.10;;;2.28;;
47335;SDS011;33068;51.990;5.926;2022-09-09T08:02:59;10.82;;;2.35;;
47335;SDS011;33068;51.990;5.926;2022-09-09T08:05:27;4.63;;;1.92;;
47335;SDS011;33068;51.990;5.926;2022-09-09T08:07:56;8.57;;;2.17;;
47335;SDS011;33068;51.990;5.926;2022-09-09T08:10:23;3.92;;;1.80;;
47335;SDS011;33068;51.990;5.926;2022-09-09T08:12:53;6.38;;;1.80;;
47335;SDS011;33068;51.990;5.926;2022-09-09T08:15:20;5.80;;;1.58;;
47335;SDS011;33068;51.990;5.926;2022-09-09T08:17:47;8.90;;;1.85;;
47335;SDS011;33068;51.990;5.926;2022-09-09T08:20:15;5.22;;;1.30;;
47335;SDS011;33068;51.990;5.926;2022-09-09T08:22:42;8.73;;;1.80;;
47335;SDS011;33068;51.990;5.926;2022-09-09T08:25:11;11.80;;;1.65;;
47335;SDS011;33068;51.990;5.926;2022-09-09T08:27:38;8.70;;;1.70;;
47335;SDS011;33068;51.990;5.926;2022-09-09T08:30:05;3.83;;;1.58;;
47335;SDS011;33068;51.990;5.926;2022-09-09T08:32:33;10.43;;;1.58;;
47335;SDS011;33068;51.990;5.926;2022-09-09T08:35:00;8.43;;;1.45;;
47335;SDS011;33068;51.990;5.926;2022-09-09T08:37:28;3.63;;;1.38;;
47335;SDS011;33068;51.990;5.926;2022-09-09T08:39:57;7.75;;;1.42;;
47335;SDS011;33068;51.990;5.926;2022-09-09T08:48:21;10.23;;;2.08;;
47335;SDS011;33068;51.990;5.926;2022-09-09T08:51:01;5.50;;;1.65;;
47335;SDS011;33068;51.990;5.926;2022-09-09T08:53:34;7.38;;;1.40;;
47335;SDS011;33068;51.990;5.926;2022-09-09T08:56:09;6.88;;;1.77;;
47335;SDS011;33068;51.990;5.926;2022-09-09T08:58:52;6.10;;;1.38;;
47335;SDS011;33068;51.990;5.926;2022-09-09T09:01:44;10.30;;;1.40;;
47335;SDS011;33068;51.990;5.926;2022-09-09T09:04:38;5.82;;;1.52;;
47335;SDS011;33068;51.990;5.926;2022-09-09T09:07:17;5.90;;;1.90;;
47335;SDS011;33068;51.990;5.926;2022-09-09T09:09:54;5.60;;;1.20;;
47335;SDS011;33068;51.990;5.926;2022-09-09T09:12:32;5.57;;;0.85;;
47335;SDS011;33068;51.990;5.926;2022-09-09T09:15:10;7.25;;;0.95;;
47335;SDS011;33068;51.990;5.926;2022-09-09T09:17:43;4.97;;;0.90;;
47335;SDS011;33068;51.990;5.926;2022-09-09T09:20:11;4.45;;;0.80;;
47335;SDS011;33068;51.990;5.926;2022-09-09T09:22:44;8.25;;;0.80;;
47335;SDS011;33068;51.990;5.926;2022-09-09T09:27:48;8.13;;;0.90;;
47335;SDS011;33068;51.990;5.926;2022-09-09T09:30:24;3.75;;;0.75;;
47335;SDS011;33068;51.990;5.926;2022-09-09T09:33:02;1.95;;;0.60;;
47335;SDS011;33068;51.990;5.926;2022-09-09T09:35:37;3.28;;;1.15;;
47335;SDS011;33068;51.990;5.926;2022-09-09T09:38:08;5.20;;;1.50;;
47335;SDS011;33068;51.990;5.926;2022-09-09T09:40:50;6.28;;;1.00;;
47335;SDS011;33068;51.990;5.926;2022-09-09T09:43:24;4.45;;;0.70;;
47335;SDS011;33068;51.990;5.926;2022-09-09T09:45:56;3.22;;;1.10;;
47335;SDS011;33068;51.990;5.926;2022-09-09T09:48:24;4.38;;;0.82;;
47335;SDS011;33068;51.990;5.926;2022-09-09T09:50:53;9.27;;;1.10;;
47335;SDS011;33068;51.990;5.926;2022-09-09T09:53:24;6.10;;;1.23;;
47335;SDS011;33068;51.990;5.926;2022-09-09T09:55:55;7.03;;;0.80;;
47335;SDS011;33068;51.990;5.926;2022-09-09T09:58:24;3.63;;;0.50;;
47335;SDS011;33068;51.990;5.926;2022-09-09T10:00:53;6.45;;;0.90;;
47335;SDS011;33068;51.990;5.926;2022-09-09T10:03:26;8.35;;;0.93;;
47335;SDS011;33068;51.990;5.926;2022-09-09T10:05:56;3.30;;;0.75;;
47335;SDS011;33068;51.990;5.926;2022-09-09T10:08:24;4.68;;;0.63;;
47335;SDS011;33068;51.990;5.926;2022-09-09T10:10:57;6.32;;;0.70;;
47335;SDS011;33068;51.990;5.926;2022-09-09T10:13:51;6.13;;;0.80;;
47335;SDS011;33068;51.990;5.926;2022-09-09T10:16:32;3.22;;;0.38;;
47335;SDS011;33068;51.990;5.926;2022-09-09T10:19:09;5.72;;;1.02;;
47335;SDS011;33068;51.990;5.926;2022-09-09T10:21:43;4.97;;;0.65;;
47335;SDS011;33068;51.990;5.926;2022-09-09T10:24:43;5.20;;;0.93;;
47335;SDS011;33068;51.990;5.926;2022-09-09T10:27:32;6.32;;;0.90;;
47335;SDS011;33068;51.990;5.926;2022-09-09T10:30:12;7.40;;;0.70;;
47335;SDS011;33068;51.990;5.926;2022-09-09T10:32:48;2.67;;;0.65;;
47335;SDS011;33068;51.990;5.926;2022-09-09T10:40:58;2.75;;;0.60;;
47335;SDS011;33068;51.990;5.926;2022-09-09T10:43:43;8.88;;;1.00;;
47335;SDS011;33068;51.990;5.926;2022-09-09T10:46:31;2.97;;;0.47;;
47335;SDS011;33068;51.990;5.926;2022-09-09T10:49:09;7.55;;;0.80;;
47335;SDS011;33068;51.990;5.926;2022-09-09T10:51:50;4.15;;;0.68;;
47335;SDS011;33068;51.990;5.926;2022-09-09T10:54:31;10.95;;;1.13;;
47335;SDS011;33068;51.990;5.926;2022-09-09T10:57:10;3.65;;;0.68;;
47335;SDS011;33068;51.990;5.926;2022-09-09T10:59:42;3.80;;;0.93;;
47335;SDS011;33068;51.990;5.926;2022-09-09T11:02:13;8.65;;;1.13;;
47335;SDS011;33068;51.990;5.926;2022-09-09T11:04:48;5.75;;;0.77;;
47335;SDS011;33068;51.990;5.926;2022-09-09T11:07:23;3.70;;;0.50;;
47335;SDS011;33068;51.990;5.926;2022-09-09T11:09:56;7.00;;;0.98;;
47335;SDS011;33068;51.990;5.926;2022-09-09T11:12:27;3.53;;;1.00;;
47335;SDS011;33068;51.990;5.926;2022-09-09T11:14:59;7.43;;;0.80;;
47335;SDS011;33068;51.990;5.926;2022-09-09T11:17:33;8.50;;;0.80;;
47335;SDS011;33068;51.990;5.926;2022-09-09T11:20:10;1.92;;;0.65;;
47335;SDS011;33068;51.990;5.926;2022-09-09T11:22:39;5.78;;;0.68;;
47335;SDS011;33068;51.990;5.926;2022-09-09T11:25:15;3.10;;;0.75;;
47335;SDS011;33068;51.990;5.926;2022-09-09T11:27:50;8.27;;;0.88;;
47335;SDS011;33068;51.990;5.926;2022-09-09T11:30:34;2.08;;;0.85;;
47335;SDS011;33068;51.990;5.926;2022-09-09T11:33:28;9.63;;;0.70;;
47335;SDS011;33068;51.990;5.926;2022-09-09T11:36:20;4.03;;;0.93;;
47335;SDS011;33068;51.990;5.926;2022-09-09T11:39:01;6.57;;;1.00;;
47335;SDS011;33068;51.990;5.926;2022-09-09T11:41:42;2.05;;;0.75;;
47335;SDS011;33068;51.990;5.926;2022-09-09T11:44:10;6.63;;;0.90;;
47335;SDS011;33068;51.990;5.926;2022-09-09T11:46:38;4.72;;;0.70;;
47335;SDS011;33068;51.990;5.926;2022-09-09T11:49:22;3.35;;;0.80;;
47335;SDS011;33068;51.990;5.926;2022-09-09T11:51:57;5.25;;;0.60;;
47335;SDS011;33068;51.990;5.926;2022-09-09T11:54:28;3.65;;;0.80;;
47335;SDS011;33068;51.990;5.926;2022-09-09T11:57:04;4.95;;;0.70;;
47335;SDS011;33068;51.990;5.926;2022-09-09T11:59:51;3.97;;;0.93;;
47335;SDS011;33068;51.990;5.926;2022-09-09T12:02:22;4.70;;;0.70;;
47335;SDS011;33068;51.990;5.926;2022-09-09T12:04:54;4.68;;;0.80;;
47335;SDS011;33068;51.990;5.926;2022-09-09T12:07:28;3.78;;;1.25;;
47335;SDS011;33068;51.990;5.926;2022-09-09T12:10:02;2.13;;;0.50;;
47335;SDS011;33068;51.990;5.926;2022-09-09T12:12:32;3.60;;;0.80;;
47335;SDS011;33068;51.990;5.926;2022-09-09T12:15:03;2.88;;;0.60;;
47335;SDS011;33068;51.990;5.926;2022-09-09T12:17:47;6.93;;;0.90;;
47335;SDS011;33068;51.990;5.926;2022-09-09T12:20:18;5.10;;;0.77;;
47335;SDS011;33068;51.990;5.926;2022-09-09T12:22:54;2.05;;;0.50;;
47335;SDS011;33068;51.990;5.926;2022-09-09T12:26:05;1.67;;;0.70;;
47335;SDS011;33068;51.990;5.926;2022-09-09T12:28:51;2.95;;;0.90;;
47335;SDS011;33068;51.990;5.926;2022-09-09T12:31:25;5.47;;;1.08;;
47335;SDS011;33068;51.990;5.926;2022-09-09T12:34:02;4.05;;;1.00;;
47335;SDS011;33068;51.990;5.926;2022-09-09T12:36:36;3.38;;;0.60;;
47335;SDS011;33068;51.990;5.926;2022-09-09T12:39:14;8.18;;;0.63;;
47335;SDS011;33068;51.990;5.926;2022-09-09T12:41:50;3.03;;;0.70;;
47335;SDS011;33068;51.990;5.926;2022-09-09T12:44:23;3.20;;;0.50;;
47335;SDS011;33068;51.990;5.926;2022-09-09T12:46:50;2.00;;;0.57;;
47335;SDS011;33068;51.990;5.926;2022-09-09T12:49:27;2.53;;;0.93;;
47335;SDS011;33068;51.990;5.926;2022-09-09T12:52:00;1.00;;;0.50;;
47335;SDS011;33068;51.990;5.926;2022-09-09T12:54:32;2.63;;;0.70;;
47335;SDS011;33068;51.990;5.926;2022-09-09T12:57:01;5.15;;;0.88;;
47335;SDS011;33068;51.990;5.926;2022-09-09T12:59:34;2.30;;;0.75;;
47335;SDS011;33068;51.990;5.926;2022-09-09T13:02:11;2.03;;;0.73;;
47335;SDS011;33068;51.990;5.926;2022-09-09T13:04:44;4.22;;;0.70;;
47335;SDS011;33068;51.990;5.926;2022-09-09T13:07:12;2.67;;;0.50;;
47335;SDS011;33068;51.990;5.926;2022-09-09T13:09:42;2.88;;;0.85;;
47335;SDS011;33068;51.990;5.926;2022-09-09T13:12:12;5.22;;;0.75;;
47335;SDS011;33068;51.990;5.926;2022-09-09T13:14:42;2.25;;;0.73;;
47335;SDS011;33068;51.990;5.926;2022-09-09T13:17:17;4.35;;;0.65;;
47335;SDS011;33068;51.990;5.926;2022-09-09T13:19:47;10.25;;;1.15;;
47335;SDS011;33068;51.990;5.926;2022-09-09T13:22:21;3.42;;;1.30;;
47335;SDS011;33068;51.990;5.926;2022-09-09T13:25:00;3.40;;;1.17;;
47335;SDS011;33068;51.990;5.926;2022-09-09T13:27:30;3.17;;;0.75;;
47335;SDS011;33068;51.990;5.926;2022-09-09T13:29:59;6.82;;;1.23;;
47335;SDS011;33068;51.990;5.926;2022-09-09T13:32:27;2.65;;;1.10;;
47335;SDS011;33068;51.990;5.926;2022-09-09T13:34:57;4.13;;;0.77;;
47335;SDS011;33068;51.990;5.926;2022-09-09T13:37:27;3.30;;;0.90;;
47335;SDS011;33068;51.990;5.926;2022-09-09T13:39:58;3.03;;;1.00;;
47335;SDS011;33068;51.990;5.926;2022-09-09T13:42:28;1.42;;;0.90;;
47335;SDS011;33068;51.990;5.926;2022-09-09T13:44:58;2.60;;;0.80;;
47335;SDS011;33068;51.990;5.926;2022-09-09T13:47:30;3.60;;;1.02;;
47335;SDS011;33068;51.990;5.926;2022-09-09T13:50:09;3.60;;;0.90;;
47335;SDS011;33068;51.990;5.926;2022-09-09T13:52:45;3.72;;;1.30;;
47335;SDS011;33068;51.990;5.926;2022-09-09T13:55:14;2.78;;;0.80;;
47335;SDS011;33068;51.990;5.926;2022-09-09T13:57:49;2.03;;;1.02;;
47335;SDS011;33068;51.990;5.926;2022-09-09T14:00:17;3.50;;;1.33;;
47335;SDS011;33068;51.990;5.926;2022-09-09T14:02:46;2.67;;;1.15;;
47335;SDS011;33068;51.990;5.926;2022-09-09T14:05:13;1.63;;;0.90;;
47335;SDS011;33068;51.990;5.926;2022-09-09T14:07:41;5.18;;;1.10;;
47335;SDS011;33068;51.990;5.926;2022-09-09T14:10:09;9.02;;;1.33;;
47335;SDS011;33068;51.990;5.926;2022-09-09T14:12:39;3.78;;;0.93;;
47335;SDS011;33068;51.990;5.926;2022-09-09T14:15:06;2.67;;;0.63;;
47335;SDS011;33068;51.990;5.926;2022-09-09T14:17:36;2.75;;;0.60;;
47335;SDS011;33068;51.990;5.926;2022-09-09T14:20:03;3.08;;;0.50;;
47335;SDS011;33068;51.990;5.926;2022-09-09T14:22:34;2.63;;;0.70;;
47335;SDS011;33068;51.990;5.926;2022-09-09T14:25:02;2.30;;;0.50;;
47335;SDS011;33068;51.990;5.926;2022-09-09T14:27:30;3.05;;;0.50;;
47335;SDS011;33068;51.990;5.926;2022-09-09T14:29:59;2.65;;;0.60;;
47335;SDS011;33068;51.990;5.926;2022-09-09T14:32:26;2.58;;;0.80;;
47335;SDS011;33068;51.990;5.926;2022-09-09T14:34:54;2.10;;;0.50;;
47335;SDS011;33068;51.990;5.926;2022-09-09T14:37:21;4.40;;;0.60;;
47335;SDS011;33068;51.990;5.926;2022-09-09T14:39:49;3.88;;;0.80;;
47335;SDS011;33068;51.990;5.926;2022-09-09T14:42:16;5.93;;;0.75;;
47335;SDS011;33068;51.990;5.926;2022-09-09T14:44:43;2.33;;;0.80;;
47335;SDS011;33068;51.990;5.926;2022-09-09T14:47:12;3.45;;;0.60;;
47335;SDS011;33068;51.990;5.926;2022-09-09T14:49:39;3.35;;;0.60;;
47335;SDS011;33068;51.990;5.926;2022-09-09T14:52:06;5.63;;;0.65;;
47335;SDS011;33068;51.990;5.926;2022-09-09T14:54:34;1.73;;;0.60;;
47335;SDS011;33068;51.990;5.926;2022-09-09T14:57:01;2.13;;;0.60;;
47335;SDS011;33068;51.990;5.926;2022-09-09T14:59:28;4.65;;;0.80;;
47335;SDS011;33068;51.990;5.926;2022-09-09T15:01:55;3.22;;;0.90;;
47335;SDS011;33068;51.990;5.926;2022-09-09T15:04:24;6.15;;;0.73;;
47335;SDS011;33068;51.990;5.926;2022-09-09T15:06:51;3.00;;;0.85;;
47335;SDS011;33068;51.990;5.926;2022-09-09T15:09:19;3.70;;;0.60;;
47335;SDS011;33068;51.990;5.926;2022-09-09T15:11:46;3.42;;;0.80;;
47335;SDS011;33068;51.990;5.926;2022-09-09T15:14:13;4.43;;;0.40;;
47335;SDS011;33068;51.990;5.926;2022-09-09T15:16:40;2.92;;;0.60;;
47335;SDS011;33068;51.990;5.926;2022-09-09T15:19:07;2.38;;;0.73;;
47335;SDS011;33068;51.990;5.926;2022-09-09T15:21:36;5.18;;;1.20;;
47335;SDS011;33068;51.990;5.926;2022-09-09T15:24:04;5.82;;;0.60;;
47335;SDS011;33068;51.990;5.926;2022-09-09T15:26:33;3.85;;;0.63;;
47335;SDS011;33068;51.990;5.926;2022-09-09T15:29:01;3.28;;;1.35;;
47335;SDS011;33068;51.990;5.926;2022-09-09T15:31:29;3.30;;;1.00;;
47335;SDS011;33068;51.990;5.926;2022-09-09T15:33:59;4.95;;;1.60;;
47335;SDS011;33068;51.990;5.926;2022-09-09T15:36:28;3.85;;;1.10;;
47335;SDS011;33068;51.990;5.926;2022-09-09T15:38:58;5.00;;;0.93;;